Norwood, Massachusetts
Current Conditions -  °F | °C
As of 11:14 PM on Wednesday 22 Oct 2014 (Local Time) from KOWD Reporting Station
Heavy Rain Heavy Rain  
Wind Chill: 52°   Ceiling: 1200
Heat Index: 52°   Visibility: 2.5mi
Dew Point: 49°   Wind: 18mph
Humidity: 89%   Direction: 20°NNE
Pressure: 29.78"   Gusts: 39mph
Location:  42.2°N, 71.2°W
Report Text: KOWD 230314Z 02016G34KT 2 1/2SM +RA BR BKN012 OVC016 11/09 A2978 RMK AO2 PK WND 02034/0308 LTG DSNT W P0018 T01110094
Loading
Personal Weather Stations






























Interactive Weather Map New forecast layout! Learn more

10-Day Weather Forecast

Advertisements
Track Severe Weather on mobile